createdAt,value
2019-01-30T00:01:38.900Z,0.81
2019-01-30T00:04:06.019Z,0.82
2019-01-30T00:06:33.086Z,0.82
2019-01-30T00:09:00.136Z,0.78
2019-01-30T00:11:27.271Z,0.77
2019-01-30T00:13:54.334Z,0.74
2019-01-30T00:16:21.415Z,0.70
2019-01-30T00:18:48.571Z,0.71
2019-01-30T00:21:15.644Z,0.74
2019-01-30T00:23:42.689Z,0.74
2019-01-30T00:26:09.933Z,0.71
2019-01-30T00:28:37.068Z,0.70
2019-01-30T00:31:04.158Z,0.70
2019-01-30T00:33:31.224Z,0.68
2019-01-30T00:35:58.280Z,0.66
2019-01-30T00:38:25.342Z,0.64
2019-01-30T00:40:52.471Z,0.63
2019-01-30T00:43:19.502Z,0.61
2019-01-30T00:45:46.643Z,0.61
2019-01-30T00:48:13.705Z,0.58
2019-01-30T00:50:40.757Z,0.57
2019-01-30T00:53:07.870Z,0.56
2019-01-30T00:55:34.900Z,0.54
2019-01-30T00:58:02.114Z,0.51
2019-01-30T01:00:30.055Z,0.45
2019-01-30T01:02:57.116Z,0.43
2019-01-30T01:05:24.287Z,0.44
2019-01-30T01:07:51.623Z,0.45
2019-01-30T01:10:19.033Z,0.42
2019-01-30T01:12:46.079Z,0.43
2019-01-30T01:15:14.050Z,0.40
2019-01-30T01:17:41.350Z,0.38
2019-01-30T01:20:10.626Z,0.38
2019-01-30T01:22:37.702Z,0.36
2019-01-30T01:25:06.410Z,0.36
2019-01-30T01:27:33.439Z,0.35
2019-01-30T01:30:00.695Z,0.35
2019-01-30T01:32:27.729Z,0.32
2019-01-30T01:34:54.802Z,0.32
2019-01-30T01:37:21.891Z,0.32
2019-01-30T01:39:50.927Z,0.27
2019-01-30T01:42:17.966Z,0.22
2019-01-30T01:44:45.052Z,0.20
2019-01-30T01:47:12.201Z,0.15
2019-01-30T01:49:39.252Z,0.11
2019-01-30T01:52:06.351Z,0.07
2019-01-30T01:54:33.406Z,0.02
2019-01-30T01:57:00.444Z,-0.01
2019-01-30T01:59:27.508Z,-0.03
2019-01-30T02:01:54.561Z,-0.02
2019-01-30T02:04:21.606Z,0.03
2019-01-30T02:06:48.682Z,0.02
2019-01-30T02:09:15.738Z,0.02
2019-01-30T02:11:43.739Z,-0.02
2019-01-30T02:14:10.821Z,-0.06
2019-01-30T02:16:38.079Z,-0.09
2019-01-30T02:19:05.194Z,-0.08
2019-01-30T02:21:32.253Z,-0.06
2019-01-30T02:23:59.431Z,-0.08
2019-01-30T02:26:26.560Z,-0.11
2019-01-30T02:28:53.602Z,-0.12
2019-01-30T02:31:20.693Z,-0.13
2019-01-30T02:33:47.755Z,-0.10
2019-01-30T02:36:14.799Z,-0.09
2019-01-30T02:38:41.888Z,-0.13
2019-01-30T02:41:09.142Z,-0.13
2019-01-30T02:43:36.316Z,-0.15
2019-01-30T02:46:03.745Z,-0.17
2019-01-30T02:48:30.800Z,-0.19
2019-01-30T02:50:57.915Z,-0.19
2019-01-30T02:53:25.004Z,-0.22
2019-01-30T02:55:52.076Z,-0.24
2019-01-30T02:58:19.181Z,-0.23
2019-01-30T03:00:46.249Z,-0.25
2019-01-30T03:03:13.317Z,-0.33
2019-01-30T03:05:40.375Z,-0.38
2019-01-30T03:08:07.614Z,-0.40
2019-01-30T03:10:34.668Z,-0.43
2019-01-30T03:13:01.738Z,-0.47
2019-01-30T03:15:28.859Z,-0.54
2019-01-30T03:17:57.750Z,-0.57
2019-01-30T03:20:26.038Z,-0.60
2019-01-30T03:22:53.232Z,-0.66
2019-01-30T03:25:21.660Z,-0.72
2019-01-30T03:27:50.990Z,-0.79
2019-01-30T03:30:25.995Z,-0.80
2019-01-30T03:32:53.029Z,-0.77
2019-01-30T03:35:20.089Z,-0.76
2019-01-30T03:37:47.234Z,-0.77
2019-01-30T03:40:16.079Z,-0.77
2019-01-30T03:42:43.136Z,-0.75
2019-01-30T03:45:11.122Z,-0.73
2019-01-30T03:47:38.200Z,-0.74
2019-01-30T03:50:06.615Z,-0.71
2019-01-30T03:52:33.769Z,-0.64
2019-01-30T03:55:00.837Z,-0.61
2019-01-30T03:57:29.050Z,-0.57
2019-01-30T03:59:56.396Z,-0.56
2019-01-30T04:02:23.480Z,-0.55
2019-01-30T04:04:50.755Z,-0.52
2019-01-30T04:07:17.856Z,-0.48
2019-01-30T04:09:44.916Z,-0.46
2019-01-30T04:12:11.965Z,-0.45
2019-01-30T04:14:39.073Z,-0.43
2019-01-30T04:17:06.191Z,-0.40
2019-01-30T04:19:33.246Z,-0.36
2019-01-30T04:22:00.349Z,-0.29
2019-01-30T04:24:27.475Z,-0.24
2019-01-30T04:26:54.579Z,-0.20
2019-01-30T04:29:21.748Z,-0.17
2019-01-30T04:31:48.812Z,-0.18
2019-01-30T04:34:15.853Z,-0.17
2019-01-30T04:36:42.929Z,-0.13
2019-01-30T04:39:09.962Z,-0.10
2019-01-30T04:41:37.112Z,-0.09
2019-01-30T04:44:04.433Z,-0.06
2019-01-30T04:46:31.489Z,-0.04
2019-01-30T04:48:58.669Z,0.03
2019-01-30T04:51:25.770Z,0.02
2019-01-30T04:53:52.813Z,0.01
2019-01-30T04:56:19.853Z,0.01
2019-01-30T04:58:46.941Z,0.04
2019-01-30T05:01:14.146Z,0.05
2019-01-30T05:03:41.230Z,0.06
2019-01-30T05:06:08.329Z,0.09
2019-01-30T05:08:35.433Z,0.08
2019-01-30T05:11:02.507Z,0.10
2019-01-30T05:13:29.556Z,0.11
2019-01-30T05:15:56.672Z,0.16
2019-01-30T05:18:23.797Z,0.17
2019-01-30T05:20:50.879Z,0.18
2019-01-30T05:23:17.965Z,0.19
2019-01-30T05:25:45.156Z,0.21
2019-01-30T05:28:12.347Z,0.24
2019-01-30T05:30:39.876Z,0.24
2019-01-30T05:33:06.974Z,0.25
2019-01-30T05:35:34.047Z,0.29
2019-01-30T05:38:01.230Z,0.28
2019-01-30T05:40:28.322Z,0.29
2019-01-30T05:42:55.378Z,0.33
2019-01-30T05:45:22.697Z,0.33
2019-01-30T05:47:49.754Z,0.34
2019-01-30T05:50:16.797Z,0.36
2019-01-30T05:53:27.794Z,0.36
2019-01-30T05:55:54.880Z,0.36
2019-01-30T05:58:22.024Z,0.36
2019-01-30T06:00:49.185Z,0.34
2019-01-30T06:03:16.478Z,0.35
2019-01-30T06:05:44.093Z,0.34
2019-01-30T06:08:11.301Z,0.33
2019-01-30T06:10:38.348Z,0.31
2019-01-30T06:13:05.427Z,0.32
2019-01-30T06:15:32.495Z,0.30
2019-01-30T06:17:59.633Z,0.29
2019-01-30T06:20:26.962Z,0.28
2019-01-30T06:22:54.620Z,0.29
2019-01-30T06:25:22.020Z,0.29
2019-01-30T06:27:49.229Z,0.27
2019-01-30T06:30:17.588Z,0.28
2019-01-30T06:32:44.634Z,0.25
2019-01-30T06:35:11.826Z,0.24
2019-01-30T06:37:38.914Z,0.22
2019-01-30T06:40:12.456Z,0.24
2019-01-30T06:42:39.545Z,0.20
2019-01-30T06:45:07.449Z,0.22
2019-01-30T06:47:34.527Z,0.21
2019-01-30T06:50:01.624Z,0.21
2019-01-30T06:52:28.671Z,0.22
2019-01-30T06:54:55.743Z,0.20
2019-01-30T06:57:22.923Z,0.20
2019-01-30T06:59:56.353Z,0.18
2019-01-30T07:02:32.173Z,0.20
2019-01-30T07:04:52.409Z,0.17
2019-01-30T07:07:19.561Z,0.16
2019-01-30T07:09:46.761Z,0.13
2019-01-30T07:12:13.899Z,0.14
2019-01-30T07:14:40.944Z,0.16
2019-01-30T07:17:08.013Z,0.17
2019-01-30T07:19:35.084Z,0.17
2019-01-30T07:22:02.144Z,0.17
2019-01-30T07:24:31.019Z,0.16
2019-01-30T07:26:58.201Z,0.14
2019-01-30T07:29:25.419Z,0.16
2019-01-30T07:31:52.549Z,0.15
2019-01-30T07:34:19.631Z,0.16
2019-01-30T07:36:46.710Z,0.18
2019-01-30T07:39:13.840Z,0.19
2019-01-30T07:41:40.920Z,0.21
2019-01-30T07:44:08.036Z,0.24
2019-01-30T07:46:35.357Z,0.28
2019-01-30T07:49:02.445Z,0.30
2019-01-30T07:51:29.474Z,0.33
2019-01-30T07:53:56.590Z,0.33
2019-01-30T07:56:23.697Z,0.35
2019-01-30T07:58:50.737Z,0.36
2019-01-30T08:01:17.928Z,0.38
2019-01-30T08:03:45.009Z,0.41
2019-01-30T08:06:12.154Z,0.43
2019-01-30T08:08:39.326Z,0.47
2019-01-30T08:11:07.452Z,0.49
2019-01-30T08:13:34.642Z,0.54
2019-01-30T08:16:01.742Z,0.57
2019-01-30T08:18:28.842Z,0.62
2019-01-30T08:20:56.383Z,0.66
2019-01-30T08:23:23.841Z,0.70
2019-01-30T08:25:51.215Z,0.72
2019-01-30T08:28:18.407Z,0.76
2019-01-30T08:30:45.901Z,0.79
2019-01-30T08:33:13.284Z,0.82
2019-01-30T08:35:40.358Z,0.83
2019-01-30T08:38:07.579Z,0.85
2019-01-30T08:40:34.643Z,0.86
2019-01-30T08:43:01.697Z,0.90
2019-01-30T08:45:30.380Z,0.92
2019-01-30T08:47:57.496Z,0.95
2019-01-30T08:50:27.844Z,0.98
2019-01-30T08:52:54.975Z,1.01
2019-01-30T08:55:22.032Z,1.04
2019-01-30T08:57:49.201Z,1.08
2019-01-30T09:00:17.934Z,1.14
2019-01-30T09:02:45.065Z,1.21
2019-01-30T09:05:12.842Z,1.28
2019-01-30T09:07:44.265Z,1.35
2019-01-30T09:10:12.019Z,1.39
2019-01-30T09:12:39.069Z,1.43
2019-01-30T09:15:07.668Z,1.48
2019-01-30T09:17:34.798Z,1.48
2019-01-30T09:20:04.379Z,1.50
2019-01-30T09:22:31.484Z,1.52
2019-01-30T09:24:58.580Z,1.52
2019-01-30T09:27:25.596Z,1.53
2019-01-30T09:29:52.753Z,1.54
2019-01-30T09:32:19.865Z,1.54
2019-01-30T09:34:46.920Z,1.54
2019-01-30T09:37:13.983Z,1.54
2019-01-30T09:39:41.073Z,1.55
2019-01-30T09:42:08.178Z,1.54
2019-01-30T09:44:35.351Z,1.56
2019-01-30T09:47:02.481Z,1.57
2019-01-30T09:49:29.550Z,1.62
2019-01-30T09:51:56.552Z,1.59
2019-01-30T09:54:23.626Z,1.60
2019-01-30T09:56:50.839Z,1.60
2019-01-30T09:59:17.965Z,1.58
2019-01-30T10:01:45.051Z,1.53
2019-01-30T10:04:12.144Z,1.45
2019-01-30T10:06:39.252Z,1.42
2019-01-30T10:09:44.161Z,1.37
2019-01-30T10:12:11.308Z,1.33
2019-01-30T10:14:38.384Z,1.30
2019-01-30T10:17:05.452Z,1.29
2019-01-30T10:19:32.551Z,1.27
2019-01-30T10:21:59.716Z,1.23
2019-01-30T10:24:29.032Z,1.24
2019-01-30T10:26:55.810Z,1.23
2019-01-30T10:29:22.931Z,1.21
2019-01-30T10:31:52.103Z,1.21
2019-01-30T10:34:19.249Z,1.23
2019-01-30T10:36:48.112Z,1.22
2019-01-30T10:39:15.156Z,1.23
2019-01-30T10:41:42.227Z,1.22
2019-01-30T10:44:09.263Z,1.21
2019-01-30T10:46:36.310Z,1.22
2019-01-30T10:49:03.516Z,1.23
2019-01-30T10:51:30.562Z,1.22
2019-01-30T10:53:57.615Z,1.24
2019-01-30T10:56:24.699Z,1.24
2019-01-30T10:58:51.812Z,1.25
2019-01-30T11:01:18.894Z,1.25
2019-01-30T11:03:46.069Z,1.26
2019-01-30T11:06:15.038Z,1.27
2019-01-30T11:08:42.093Z,1.23
2019-01-30T11:11:09.348Z,1.23
2019-01-30T11:13:36.474Z,1.27
2019-01-30T11:16:06.739Z,1.28
2019-01-30T11:18:35.070Z,1.29
2019-01-30T11:21:05.962Z,1.29
2019-01-30T11:23:33.073Z,1.25
2019-01-30T11:26:00.153Z,1.23
2019-01-30T11:28:27.248Z,1.24
2019-01-30T11:30:54.318Z,1.28
2019-01-30T11:33:21.419Z,1.27
2019-01-30T11:35:48.568Z,1.26
2019-01-30T11:38:15.636Z,1.26
2019-01-30T11:40:42.682Z,1.22
2019-01-30T11:43:09.969Z,1.21
2019-01-30T11:45:39.322Z,1.20
2019-01-30T11:48:07.319Z,1.21
2019-01-30T11:50:34.622Z,1.21
2019-01-30T11:53:01.784Z,1.22
2019-01-30T11:55:28.954Z,1.23
2019-01-30T11:57:56.081Z,1.24
2019-01-30T12:00:47.265Z,1.24
2019-01-30T12:03:14.566Z,1.23
2019-01-30T12:05:43.476Z,1.23
2019-01-30T12:08:10.798Z,1.25
2019-01-30T12:10:37.955Z,1.26
2019-01-30T12:13:05.064Z,1.27
2019-01-30T12:15:32.142Z,1.27
2019-01-30T12:17:59.216Z,1.29
2019-01-30T12:20:26.331Z,1.28
2019-01-30T12:22:54.326Z,1.21
2019-01-30T12:25:21.644Z,1.17
2019-01-30T12:27:50.786Z,1.10
2019-01-30T12:30:20.010Z,1.08
2019-01-30T12:32:47.102Z,1.07
2019-01-30T12:35:14.273Z,1.08
2019-01-30T12:37:41.369Z,1.04
2019-01-30T12:40:09.929Z,1.02
2019-01-30T12:42:36.969Z,1.02
2019-01-30T12:45:05.814Z,1.04
2019-01-30T12:47:32.867Z,1.03
2019-01-30T12:49:59.939Z,1.01
2019-01-30T12:52:27.124Z,0.99
2019-01-30T12:54:54.234Z,1.00
2019-01-30T12:57:21.309Z,1.02
2019-01-30T12:59:48.419Z,1.03
2019-01-30T13:02:15.454Z,1.05
2019-01-30T13:04:42.626Z,1.04
2019-01-30T13:07:09.718Z,1.00
2019-01-30T13:09:36.758Z,0.96
2019-01-30T13:12:04.115Z,0.97
2019-01-30T13:14:31.369Z,0.97
2019-01-30T13:16:58.516Z,0.98
2019-01-30T13:19:25.555Z,0.99
2019-01-30T13:21:52.845Z,1.03
2019-01-30T13:24:20.115Z,1.05
2019-01-30T13:26:47.171Z,1.09
2019-01-30T13:29:14.240Z,1.13
2019-01-30T13:31:41.329Z,1.12
2019-01-30T13:34:08.411Z,1.09
2019-01-30T13:36:35.484Z,1.10
2019-01-30T13:39:05.928Z,1.12
2019-01-30T13:41:32.960Z,1.08
2019-01-30T13:44:00.167Z,1.04
2019-01-30T13:46:27.317Z,1.03
2019-01-30T13:48:54.400Z,1.05
2019-01-30T13:51:24.578Z,1.02
2019-01-30T13:53:51.669Z,1.03
2019-01-30T13:56:18.862Z,1.04
2019-01-30T13:58:45.990Z,1.10
2019-01-30T14:01:17.568Z,1.12
2019-01-30T14:03:42.048Z,1.12
2019-01-30T14:06:09.302Z,1.14
2019-01-30T14:08:36.457Z,1.13
2019-01-30T14:11:03.498Z,1.10
2019-01-30T14:13:30.727Z,1.07
2019-01-30T14:15:57.932Z,1.08
2019-01-30T14:18:25.102Z,1.08
2019-01-30T14:20:52.196Z,1.05
2019-01-30T14:23:19.273Z,1.04
2019-01-30T14:25:46.390Z,1.01
2019-01-30T14:28:13.674Z,0.99
2019-01-30T14:30:40.707Z,1.01
2019-01-30T14:33:08.433Z,1.07
2019-01-30T14:35:40.222Z,1.11
2019-01-30T14:38:07.321Z,1.13
2019-01-30T14:40:34.374Z,1.14
2019-01-30T14:43:01.470Z,1.18
2019-01-30T14:45:28.720Z,1.20
2019-01-30T14:47:55.754Z,1.21
2019-01-30T14:50:23.983Z,1.21
2019-01-30T14:52:51.246Z,1.21
2019-01-30T14:55:18.606Z,1.22
2019-01-30T14:57:45.720Z,1.19
2019-01-30T15:00:16.019Z,1.20
2019-01-30T15:02:43.116Z,1.19
2019-01-30T15:05:21.439Z,1.21
2019-01-30T15:07:40.309Z,1.22
2019-01-30T15:10:09.136Z,1.21
2019-01-30T15:12:36.263Z,1.19
2019-01-30T15:15:04.909Z,1.14
2019-01-30T15:17:31.998Z,1.13
2019-01-30T15:19:59.105Z,1.12
2019-01-30T15:22:26.316Z,1.12
2019-01-30T15:24:53.407Z,1.08
2019-01-30T15:27:22.526Z,1.08
2019-01-30T15:29:50.725Z,1.06
2019-01-30T15:32:17.909Z,1.07
2019-01-30T15:34:45.028Z,1.04
2019-01-30T15:37:31.540Z,1.06
2019-01-30T15:39:58.855Z,1.04
2019-01-30T15:42:26.054Z,1.05
2019-01-30T15:44:53.135Z,1.05
2019-01-30T15:47:20.273Z,1.08
2019-01-30T15:49:47.563Z,1.05
2019-01-30T15:52:14.786Z,1.06
2019-01-30T15:54:41.907Z,1.06
2019-01-30T15:57:09.004Z,1.06
2019-01-30T15:59:36.126Z,1.08
2019-01-30T16:02:03.879Z,1.08
2019-01-30T16:04:30.984Z,1.09
2019-01-30T16:06:58.230Z,1.09
2019-01-30T16:09:25.296Z,1.07
2019-01-30T16:11:52.363Z,1.07
2019-01-30T16:14:19.485Z,1.08
2019-01-30T16:16:46.784Z,1.09
2019-01-30T16:19:13.905Z,1.10
2019-01-30T16:21:41.021Z,1.15
2019-01-30T16:24:08.140Z,1.10
2019-01-30T16:26:35.248Z,1.06
2019-01-30T16:29:04.395Z,1.01
2019-01-30T16:31:31.595Z,0.95
2019-01-30T16:33:59.883Z,0.91
2019-01-30T16:36:27.005Z,0.91
2019-01-30T16:38:54.102Z,0.88
2019-01-30T16:41:21.165Z,0.84
2019-01-30T16:43:48.269Z,0.79
2019-01-30T16:46:18.402Z,0.78
2019-01-30T16:48:45.439Z,0.79
2019-01-30T16:51:12.542Z,0.77
2019-01-30T16:53:39.603Z,0.74
2019-01-30T16:56:06.693Z,0.76
2019-01-30T16:58:33.877Z,0.74
2019-01-30T17:01:00.933Z,0.74
2019-01-30T17:03:28.038Z,0.80
2019-01-30T17:06:06.664Z,0.77
2019-01-30T17:08:24.206Z,0.75
2019-01-30T17:10:51.311Z,0.77
2019-01-30T17:13:18.453Z,0.75
2019-01-30T17:15:45.500Z,0.76
2019-01-30T17:18:13.422Z,0.74
2019-01-30T17:20:40.617Z,0.76
2019-01-30T17:23:07.805Z,0.76
2019-01-30T17:25:35.390Z,0.79
2019-01-30T17:28:02.557Z,0.76
2019-01-30T17:30:47.646Z,0.77
2019-01-30T17:33:14.700Z,0.79
2019-01-30T17:35:42.002Z,0.79
2019-01-30T17:38:09.574Z,0.75
2019-01-30T17:40:36.796Z,0.76
2019-01-30T17:43:04.069Z,0.75
2019-01-30T17:45:31.197Z,0.76
2019-01-30T17:47:58.442Z,0.77
2019-01-30T17:50:26.333Z,0.76
2019-01-30T17:52:53.485Z,0.76
2019-01-30T17:55:20.664Z,0.77
2019-01-30T17:57:47.868Z,0.78
2019-01-30T18:00:37.985Z,0.75
2019-01-30T18:03:05.469Z,0.77
2019-01-30T18:05:32.614Z,0.74
2019-01-30T18:07:59.822Z,0.74
2019-01-30T18:10:26.923Z,0.73
2019-01-30T18:12:53.990Z,0.72
2019-01-30T18:15:21.220Z,0.72
2019-01-30T18:17:48.317Z,0.69
2019-01-30T18:20:15.772Z,0.69
2019-01-30T18:22:44.518Z,0.67
2019-01-30T18:25:13.140Z,0.69
2019-01-30T18:27:40.222Z,0.70
2019-01-30T18:30:10.321Z,0.69
2019-01-30T18:32:37.412Z,0.71
2019-01-30T18:35:05.115Z,0.71
2019-01-30T18:37:32.380Z,0.73
2019-01-30T18:39:59.539Z,0.70
2019-01-30T18:42:26.593Z,0.70
2019-01-30T18:44:53.719Z,0.74
2019-01-30T18:47:20.762Z,0.75
2019-01-30T18:50:45.775Z,0.73
2019-01-30T18:53:12.460Z,0.74
2019-01-30T18:55:39.678Z,0.75
2019-01-30T18:58:06.791Z,0.73
2019-01-30T19:00:36.779Z,0.73
2019-01-30T19:03:05.763Z,0.75
2019-01-30T19:06:00.651Z,0.73
2019-01-30T19:08:27.699Z,0.71
2019-01-30T19:10:54.781Z,0.72
2019-01-30T19:13:21.893Z,0.70
2019-01-30T19:15:48.957Z,0.70
2019-01-30T19:18:16.352Z,0.69
2019-01-30T19:20:45.988Z,0.69
2019-01-30T19:23:13.250Z,0.68
2019-01-30T19:25:40.393Z,0.67
2019-01-30T19:28:07.794Z,0.68
2019-01-30T19:30:35.023Z,0.70
2019-01-30T19:33:11.142Z,0.67
2019-01-30T19:35:40.523Z,0.70
2019-01-30T19:38:07.943Z,0.72
2019-01-30T19:44:06.201Z,0.69
2019-01-30T19:46:33.250Z,0.69
2019-01-30T19:49:00.324Z,0.70
2019-01-30T19:51:27.439Z,0.71
2019-01-30T19:53:54.551Z,0.74
2019-01-30T19:56:21.651Z,0.78
2019-01-30T19:58:48.744Z,0.78
2019-01-30T20:01:15.796Z,0.79
2019-01-30T20:03:42.975Z,0.82
2019-01-30T20:06:10.794Z,0.82
2019-01-30T20:08:37.856Z,0.84
2019-01-30T20:11:04.933Z,0.90
2019-01-30T20:13:32.210Z,0.92
2019-01-30T20:15:59.416Z,0.93
2019-01-30T20:19:22.707Z,0.95
2019-01-30T20:21:49.760Z,0.93
2019-01-30T20:24:17.067Z,0.98
2019-01-30T20:26:44.310Z,0.99
2019-01-30T20:29:11.523Z,1.01
2019-01-30T20:31:38.609Z,1.01
2019-01-30T20:34:10.295Z,1.01
2019-01-30T20:36:34.671Z,0.99
2019-01-30T20:39:01.776Z,1.01
2019-01-30T20:41:28.871Z,1.03
2019-01-30T20:43:56.167Z,1.01
2019-01-30T20:46:23.328Z,1.02
2019-01-30T20:48:51.972Z,1.07
2019-01-30T20:51:19.310Z,1.06
2019-01-30T20:53:46.402Z,1.07
2019-01-30T20:56:13.719Z,1.08
2019-01-30T20:58:48.298Z,1.09
2019-01-30T21:01:22.751Z,1.09
2019-01-30T21:03:49.814Z,1.12
2019-01-30T21:06:18.805Z,1.14
2019-01-30T21:08:45.929Z,1.18
2019-01-30T21:11:12.975Z,1.14
2019-01-30T21:13:40.944Z,1.15
2019-01-30T21:16:08.058Z,1.19
2019-01-30T21:18:35.136Z,1.19
2019-01-30T21:21:02.352Z,1.21
2019-01-30T21:23:29.475Z,1.20
2019-01-30T21:25:56.673Z,1.25
2019-01-30T21:28:27.199Z,1.25
2019-01-30T21:30:54.496Z,1.23
2019-01-30T21:33:21.569Z,1.28
2019-01-30T21:35:48.673Z,1.30
2019-01-30T21:38:15.745Z,1.25
2019-01-30T21:40:42.790Z,1.28
2019-01-30T21:44:08.673Z,1.28
2019-01-30T21:46:35.745Z,1.25
2019-01-30T21:49:02.937Z,1.25
2019-01-30T21:51:33.193Z,1.26
2019-01-30T21:54:00.284Z,1.28
2019-01-30T21:56:27.346Z,1.24
2019-01-30T21:58:56.891Z,1.23
2019-01-30T22:01:24.026Z,1.25
2019-01-30T22:03:51.056Z,1.22
2019-01-30T22:06:18.319Z,1.22
2019-01-30T22:08:45.525Z,1.16
2019-01-30T22:11:12.649Z,1.14
2019-01-30T22:13:39.694Z,1.11
2019-01-30T22:16:06.781Z,1.11
2019-01-30T22:18:33.830Z,1.08
2019-01-30T22:21:00.882Z,1.09
2019-01-30T22:23:30.109Z,1.00
2019-01-30T22:25:57.196Z,0.95
2019-01-30T22:28:24.311Z,0.86
2019-01-30T22:30:51.385Z,0.87
2019-01-30T22:33:18.538Z,0.88
2019-01-30T22:35:45.585Z,0.86
2019-01-30T22:38:13.019Z,0.77
2019-01-30T22:40:40.298Z,0.70
2019-01-30T22:43:07.360Z,0.66
2019-01-30T22:45:34.440Z,0.66
2019-01-30T22:48:01.664Z,0.62
2019-01-30T22:50:28.791Z,0.61
2019-01-30T22:52:55.906Z,0.57
2019-01-30T22:55:23.469Z,0.54
2019-01-30T22:57:51.432Z,0.53
2019-01-30T23:01:14.069Z,0.48
2019-01-30T23:04:04.134Z,0.47
2019-01-30T23:07:09.173Z,0.45
2019-01-30T23:10:32.063Z,0.39
2019-01-30T23:14:08.122Z,0.35
2019-01-30T23:20:34.712Z,0.26
2019-01-30T23:23:45.435Z,0.21
2019-01-30T23:26:32.468Z,0.19
2019-01-30T23:29:52.957Z,0.22
2019-01-30T23:33:17.010Z,0.19
2019-01-30T23:36:19.920Z,0.16
2019-01-30T23:39:25.293Z,0.13
2019-01-30T23:42:34.885Z,0.10
2019-01-30T23:45:38.537Z,0.07
2019-01-30T23:48:50.471Z,0.02
2019-01-30T23:51:40.378Z,-0.04
2019-01-30T23:54:43.821Z,-0.08
2019-01-30T23:57:54.459Z,-0.12
